メインページ
METAR-TAF:

METAR-TAF

空港 :

ブルネイ, ブルネイ

ブルネイ国際空港

緯度: 04-56N, 経度: 114-56E, 海抜: 22m

現時点の気象観測

当レポートは17分前の16:00(UTC)に作成
北/北東の風 13kt
気温 28°C
湿度 89%
気圧 1010 hPa
視程: 9000m
高度1400ftの雲は散在している
高度14000ftの千切れ雲あり

METAR: WBSB 231600Z 02013KT 9000 SCT014 BKN140 28/26 Q1010 NOSIG

時間: 00:17 (16:17 UTC)

予報

当レポートは5時間17分前の11:00(UTC)に作成
予報は23日の 12時(UTC)から 24日の 18時(UTC)まで有効
北東の風 6kt
視程10km以上
高度1600ftの雲はほとんどない
高度1700ftの雲はほとんどない, 積乱雲.
23日の 16時(UTC)から 23日の 20時(UTC)まで一時的に
視程: 6000m
にわか雨, 激しい雷雨, 雨
23日の 18時(UTC)から 23日の 20時(UTC)まで徐々に
東/南東の風 3kt
高度1500ftの雲は散在している
高度1600ftの雲はほとんどない, 積乱雲.

TAF: WBSB 231100Z 2312/2418 04006KT 9999 FEW016 FEW017CB TEMPO 2316/2320 6000 SHRA TSRA BECMG 2318/2320 12003KT SCT015 FEW016CB

4,000以上の空港の気象観測と天気予報(METAR報とTAF報)

利用可能な観測所は地図上に黄色い丸と赤い丸で示す。

丸の上にカーソルを重ねると観測所名を参照できる。

次にクリックすると気象観測と天気予報を参照できる。

マップの切り替え:黒色「×」印の緑ボタンをクリックして拡大、「-」印の緑ボタンをクリックして縮小、緑色の三角印をクリックして隣りの地図に切り替え


METAR-TAF: